Time;durP1;ratioP1;P1;durP2;ratioP2;P2;SDS_P1;SDS_P2;PMS_P1;PMS_P2;Temp;Humidity;BMP_temperature;BMP_pressure;BME280_temperature;BME280_humidity;BME280_pressure;Samples;Min_cycle;Max_cycle;Signal;HPM_P1;HPM_P2
2023/04/07 00:01:25;;;;;;;15.10;8.70;;;10.10;99.90;;;;;;5092917;28;20241;-74
2023/04/07 00:03:50;;;;;;;17.60;9.17;;;10.10;99.90;;;;;;5093230;28;20182;-74
2023/04/07 00:06:16;;;;;;;13.53;8.53;;;10.10;99.90;;;;;;5096613;28;20171;-74
2023/04/07 00:08:42;;;;;;;13.00;9.37;;;10.10;99.90;;;;;;5096674;28;20666;-74
2023/04/07 00:11:07;;;;;;;16.17;10.60;;;10.10;99.90;;;;;;5096432;28;20627;-74
2023/04/07 00:13:33;;;;;;;14.17;10.13;;;10.10;99.90;;;;;;5095969;28;20164;-73
2023/04/07 00:15:59;;;;;;;15.37;10.03;;;10.10;99.90;;;;;;5094949;28;20267;-73
2023/04/07 00:18:25;;;;;;;13.97;10.17;;;10.00;99.90;;;;;;5096402;28;20720;-74
2023/04/07 00:20:56;;;;;;;18.77;10.37;;;10.00;99.90;;;;;;5096222;28;20289;-73
2023/04/07 00:23:22;;;;;;;16.33;10.47;;;10.00;99.90;;;;;;5096219;28;20202;-73
2023/04/07 00:25:48;;;;;;;16.70;11.27;;;10.10;99.90;;;;;;5095831;28;20202;-73
2023/04/07 00:28:14;;;;;;;17.13;11.00;;;10.00;99.90;;;;;;5095999;28;20180;-74
2023/04/07 00:30:39;;;;;;;19.40;12.77;;;10.10;99.90;;;;;;5095781;28;20198;-74
2023/04/07 00:33:05;;;;;;;19.70;11.60;;;10.10;99.90;;;;;;5094704;28;20259;-74
2023/04/07 00:35:31;;;;;;;15.53;11.20;;;10.10;99.90;;;;;;5095992;28;20167;-74
2023/04/07 00:37:58;;;;;;;18.80;10.83;;;10.10;99.90;;;;;;5095488;28;20219;-74
2023/04/07 00:40:23;;;;;;;17.80;11.70;;;10.00;99.90;;;;;;5095590;28;20203;-74
2023/04/07 00:42:49;;;;;;;13.83;10.40;;;10.00;99.90;;;;;;5095436;28;20504;-73
2023/04/07 00:45:15;;;;;;;13.30;10.40;;;9.80;99.90;;;;;;5095355;28;20242;-73
2023/04/07 00:47:40;;;;;;;16.40;10.10;;;9.80;99.90;;;;;;5095753;28;20192;-74
2023/04/07 00:50:06;;;;;;;16.83;10.43;;;9.70;99.90;;;;;;5095708;28;20203;-73
2023/04/07 00:52:32;;;;;;;17.87;9.73;;;9.80;99.90;;;;;;5095597;28;20168;-74
2023/04/07 00:55:01;;;;;;;13.10;10.37;;;9.80;99.90;;;;;;5094161;28;20186;-73
2023/04/07 00:57:27;;;;;;;17.47;10.67;;;9.80;99.90;;;;;;5095035;28;20511;-73
2023/04/07 00:59:54;;;;;;;15.30;9.73;;;9.90;99.90;;;;;;5095468;28;20257;-74
2023/04/07 01:02:29;;;;;;;15.97;10.70;;;10.00;99.90;;;;;;5095689;28;20156;-74
2023/04/07 01:05:08;;;;;;;15.53;11.40;;;10.00;99.90;;;;;;5093829;28;20167;-74
2023/04/07 01:08:07;;;;;;;15.73;11.43;;;10.00;99.90;;;;;;5095322;28;20182;-74
2023/04/07 01:10:38;;;;;;;18.07;10.93;;;10.00;99.90;;;;;;5093686;28;20171;-74
2023/04/07 01:13:26;;;;;;;12.10;10.80;;;9.90;99.90;;;;;;5094930;28;20164;-74
2023/04/07 01:15:57;;;;;;;13.70;10.57;;;10.00;99.90;;;;;;5093978;28;20211;-74
2023/04/07 01:18:33;;;;;;;15.43;10.57;;;10.00;99.90;;;;;;5094835;28;20253;-74
2023/04/07 01:21:06;;;;;;;16.33;11.43;;;10.00;99.90;;;;;;5094791;28;20170;-74
2023/04/07 01:23:38;;;;;;;15.70;10.90;;;10.00;99.90;;;;;;5094567;28;20213;-74
2023/04/07 01:26:21;;;;;;;15.27;10.90;;;10.00;99.90;;;;;;5092981;28;20176;-74
2023/04/07 01:29:06;;;;;;;21.20;10.57;;;10.00;99.90;;;;;;5094849;28;20160;-74
2023/04/07 01:31:33;;;;;;;20.40;11.43;;;10.00;99.90;;;;;;5094896;28;20206;-74
2023/04/07 01:34:02;;;;;;;16.53;11.57;;;10.00;99.90;;;;;;5094948;28;20268;-74
2023/04/07 01:36:32;;;;;;;18.70;11.37;;;10.00;99.90;;;;;;5094152;28;20297;-74
2023/04/07 01:39:01;;;;;;;18.63;11.33;;;10.10;99.90;;;;;;5094635;28;20204;-75
2023/04/07 01:41:28;;;;;;;20.00;12.07;;;10.10;99.90;;;;;;5092802;28;20176;-74
2023/04/07 01:43:56;;;;;;;22.63;11.97;;;10.10;99.90;;;;;;5094623;28;20160;-74
2023/04/07 01:46:22;;;;;;;18.87;11.93;;;10.00;99.90;;;;;;5092893;28;20287;-74
2023/04/07 01:48:48;;;;;;;17.37;12.00;;;10.00;99.90;;;;;;5094661;28;20251;-74
2023/04/07 01:51:18;;;;;;;22.40;12.87;;;10.00;99.90;;;;;;5094322;28;20199;-73
2023/04/07 01:53:54;;;;;;;20.40;13.00;;;10.10;99.90;;;;;;5093424;28;20828;-74
2023/04/07 01:56:20;;;;;;;25.10;12.80;;;10.10;99.90;;;;;;5093932;28;20577;-74
2023/04/07 01:58:45;;;;;;;22.57;13.37;;;10.10;99.90;;;;;;5094488;28;20211;-73
2023/04/07 02:01:13;;;;;;;19.93;13.63;;;10.10;99.90;;;;;;5094196;28;20571;-74
2023/04/07 02:03:50;;;;;;;26.53;14.23;;;10.00;99.90;;;;;;5094408;28;20237;-74
2023/04/07 02:06:21;;;;;;;18.93;12.73;;;9.90;99.90;;;;;;5094181;28;20172;-74
2023/04/07 02:08:53;;;;;;;20.03;12.33;;;9.80;99.90;;;;;;5094281;28;20168;-73
2023/04/07 02:11:20;;;;;;;20.73;12.60;;;9.80;99.90;;;;;;5092353;28;20542;-74
2023/04/07 02:13:46;;;;;;;26.53;14.07;;;9.90;99.90;;;;;;5094007;28;20293;-72
2023/04/07 02:16:13;;;;;;;22.60;12.60;;;10.10;99.90;;;;;;5093892;28;20171;-73
2023/04/07 02:18:40;;;;;;;25.13;12.67;;;10.00;99.90;;;;;;5094006;28;20289;-74
2023/04/07 02:21:07;;;;;;;19.33;12.10;;;9.90;99.90;;;;;;5093766;28;20160;-72
2023/04/07 02:23:34;;;;;;;22.07;13.80;;;10.00;99.90;;;;;;5093661;28;20164;-73
2023/04/07 02:26:03;;;;;;;22.63;12.97;;;10.00;99.90;;;;;;5093812;28;20208;-72
2023/04/07 02:28:28;;;;;;;22.23;13.20;;;10.10;99.90;;;;;;5093860;28;20613;-73
2023/04/07 02:30:54;;;;;;;25.30;13.40;;;10.10;99.90;;;;;;5093534;28;20199;-74
2023/04/07 02:33:20;;;;;;;17.97;12.27;;;10.00;99.90;;;;;;5093888;28;20168;-73
2023/04/07 02:35:48;;;;;;;22.97;13.20;;;9.90;99.90;;;;;;5093502;28;20176;-73
2023/04/07 02:38:14;;;;;;;18.77;12.50;;;10.00;99.90;;;;;;5091545;28;20300;-73
2023/04/07 02:40:40;;;;;;;18.17;11.47;;;10.00;99.90;;;;;;5093324;28;20207;-74
2023/04/07 02:43:08;;;;;;;18.87;10.67;;;9.70;99.90;;;;;;5093521;28;20255;-73
2023/04/07 02:45:34;;;;;;;19.77;11.13;;;9.70;99.90;;;;;;5091977;28;20238;-73
2023/04/07 02:47:59;;;;;;;16.43;11.00;;;9.70;99.90;;;;;;5093329;28;20199;-73
2023/04/07 02:50:25;;;;;;;16.00;10.60;;;9.70;99.90;;;;;;5093113;28;20246;-73
2023/04/07 02:52:51;;;;;;;16.70;10.77;;;9.80;99.90;;;;;;5093010;28;20168;-73
2023/04/07 02:55:17;;;;;;;16.57;10.97;;;9.80;99.90;;;;;;5092895;28;20171;-73
2023/04/07 02:57:43;;;;;;;19.10;10.53;;;9.90;99.90;;;;;;5093410;28;20164;-73
2023/04/07 03:00:09;;;;;;;20.13;11.47;;;9.90;99.90;;;;;;5093417;28;20211;-73
2023/04/07 03:02:35;;;;;;;16.77;10.60;;;9.90;99.90;;;;;;5093173;28;20168;-72
2023/04/07 03:05:01;;;;;;;23.97;12.17;;;9.80;99.90;;;;;;5093317;28;20167;-73
2023/04/07 03:07:30;;;;;;;23.97;13.20;;;9.90;99.90;;;;;;5092871;28;20168;-73
2023/04/07 03:09:56;;;;;;;24.43;12.90;;;9.90;99.90;;;;;;5092334;28;20206;-73
2023/04/07 03:12:22;;;;;;;33.57;14.03;;;9.80;99.90;;;;;;5092992;28;20180;-73
2023/04/07 03:14:50;;;;;;;30.13;13.53;;;9.90;99.90;;;;;;5093200;28;20168;-73
2023/04/07 03:17:16;;;;;;;29.23;14.13;;;9.80;99.90;;;;;;5092572;28;20183;-73
2023/04/07 03:19:41;;;;;;;31.93;13.63;;;9.80;99.90;;;;;;5092960;28;20567;-73
2023/04/07 03:22:07;;;;;;;26.97;13.07;;;9.80;99.90;;;;;;5091110;28;20635;-73
2023/04/07 03:24:36;;;;;;;32.30;14.43;;;9.80;99.90;;;;;;5093099;28;20250;-73
2023/04/07 03:27:02;;;;;;;30.60;16.03;;;9.80;99.90;;;;;;5091540;28;20172;-73
2023/04/07 03:29:28;;;;;;;37.73;15.63;;;9.70;99.90;;;;;;5092918;28;20665;-73
2023/04/07 03:31:53;;;;;;;36.67;15.03;;;9.70;99.90;;;;;;5092534;28;20172;-74
2023/04/07 03:34:19;;;;;;;34.47;15.70;;;9.70;99.90;;;;;;5092502;28;20258;-73
2023/04/07 03:36:47;;;;;;;35.57;15.63;;;9.80;99.90;;;;;;5092078;28;20314;-73
2023/04/07 03:39:12;;;;;;;39.90;14.43;;;9.80;99.90;;;;;;5094198;28;20207;-73
2023/04/07 03:41:38;;;;;;;38.47;15.40;;;9.80;99.90;;;;;;5096514;28;20199;-73
2023/04/07 03:44:04;;;;;;;31.43;14.77;;;9.70;99.90;;;;;;5096693;28;20256;-73
2023/04/07 03:46:30;;;;;;;33.23;14.20;;;9.70;99.90;;;;;;5096396;28;20530;-73
2023/04/07 03:48:55;;;;;;;37.80;16.07;;;9.70;99.90;;;;;;5096754;28;20198;-74
2023/04/07 03:51:23;;;;;;;32.63;14.63;;;9.70;99.90;;;;;;5096270;28;20669;-73
2023/04/07 03:53:49;;;;;;;34.90;15.90;;;9.60;99.90;;;;;;5095985;28;20168;-73
2023/04/07 03:56:15;;;;;;;37.20;15.20;;;9.60;99.90;;;;;;5096007;28;20168;-74
2023/04/07 03:58:41;;;;;;;35.73;16.40;;;9.50;99.90;;;;;;5096400;28;20216;-73
2023/04/07 04:01:13;;;;;;;32.13;15.90;;;9.50;99.90;;;;;;5094888;28;20179;-74
2023/04/07 04:03:39;;;;;;;37.07;16.00;;;9.50;99.90;;;;;;5096391;28;20194;-73
2023/04/07 04:06:07;;;;;;;35.57;17.30;;;9.60;99.90;;;;;;5095386;28;20259;-73
2023/04/07 04:08:33;;;;;;;35.33;16.53;;;9.70;99.90;;;;;;5095877;28;20250;-73
2023/04/07 04:10:59;;;;;;;47.00;18.27;;;9.60;99.90;;;;;;5094281;28;20270;-73
2023/04/07 04:13:25;;;;;;;43.70;18.40;;;9.60;99.90;;;;;;5095939;28;20180;-73
2023/04/07 04:15:52;;;;;;;42.27;18.70;;;9.60;99.90;;;;;;5096105;28;20471;-73
2023/04/07 04:18:18;;;;;;;42.83;19.27;;;9.60;99.90;;;;;;5095892;28;20259;-73
2023/04/07 04:20:44;;;;;;;48.03;20.57;;;9.60;99.90;;;;;;5094161;28;20271;-73
2023/04/07 04:23:09;;;;;;;42.87;19.07;;;9.60;99.90;;;;;;5094304;28;20171;-73
2023/04/07 04:25:38;;;;;;;44.57;19.10;;;9.60;99.90;;;;;;5095967;28;20509;-74
2023/04/07 04:28:04;;;;;;;40.87;18.80;;;9.70;99.90;;;;;;5095410;28;20167;-74
2023/04/07 04:30:30;;;;;;;47.23;19.50;;;9.60;99.90;;;;;;5094279;28;20581;-74
2023/04/07 04:32:56;;;;;;;40.93;18.83;;;9.60;99.90;;;;;;5095510;28;20164;-74
2023/04/07 04:35:21;;;;;;;42.63;18.47;;;9.60;99.90;;;;;;5095238;28;20286;-72
2023/04/07 04:37:47;;;;;;;37.93;17.63;;;9.70;99.90;;;;;;5095043;28;20220;-74
2023/04/07 04:40:13;;;;;;;36.23;17.87;;;9.70;99.90;;;;;;5095538;28;20231;-74
2023/04/07 04:42:39;;;;;;;38.07;18.33;;;9.70;99.90;;;;;;5094952;28;20247;-73
2023/04/07 04:45:06;;;;;;;38.47;18.37;;;9.70;99.90;;;;;;5095232;28;20215;-74
2023/04/07 04:47:31;;;;;;;39.93;17.80;;;9.60;99.90;;;;;;5095527;28;20179;-74
2023/04/07 04:49:57;;;;;;;41.63;19.83;;;9.70;99.90;;;;;;5092924;28;20188;-74
2023/04/07 04:52:26;;;;;;;39.37;19.27;;;9.60;99.90;;;;;;5094050;28;20172;-74
2023/04/07 04:54:52;;;;;;;39.97;19.17;;;9.50;99.90;;;;;;5095146;28;20171;-74
2023/04/07 04:57:18;;;;;;;44.07;20.03;;;9.40;99.90;;;;;;5094831;28;20179;-74
2023/04/07 04:59:43;;;;;;;44.07;20.20;;;9.50;99.90;;;;;;5095249;28;20211;-74
2023/04/07 05:02:09;;;;;;;39.93;19.47;;;9.50;99.90;;;;;;5094490;28;20239;-74
2023/04/07 05:04:35;;;;;;;41.00;19.17;;;9.50;99.90;;;;;;5094649;28;20479;-73
2023/04/07 05:07:01;;;;;;;39.93;19.00;;;9.50;99.90;;;;;;5094783;28;20175;-72
2023/04/07 05:09:32;;;;;;;38.63;18.97;;;9.50;99.90;;;;;;5093735;28;20179;-73
2023/04/07 05:12:01;;;;;;;43.57;20.47;;;9.50;99.90;;;;;;5094154;28;20179;-73
2023/04/07 05:14:29;;;;;;;39.37;20.10;;;9.50;99.90;;;;;;5093058;28;20325;-73
2023/04/07 05:16:54;;;;;;;45.37;20.97;;;9.50;99.90;;;;;;5094495;28;20737;-73
2023/04/07 05:19:23;;;;;;;44.07;20.20;;;9.50;99.90;;;;;;5094522;28;20298;-73
2023/04/07 05:21:49;;;;;;;40.93;19.77;;;9.40;99.90;;;;;;5094346;28;20176;-73
2023/04/07 05:24:14;;;;;;;37.07;20.10;;;9.40;99.90;;;;;;5094318;28;20565;-72
2023/04/07 05:26:40;;;;;;;41.83;20.23;;;9.40;99.90;;;;;;5093985;28;20175;-73
2023/04/07 05:29:06;;;;;;;44.77;20.40;;;9.30;99.90;;;;;;5094064;28;20530;-74
2023/04/07 05:31:36;;;;;;;48.97;20.67;;;9.30;99.90;;;;;;5094301;28;20204;-72
2023/04/07 05:34:01;;;;;;;46.20;21.30;;;9.30;99.90;;;;;;5092865;28;20194;-73
2023/04/07 05:36:27;;;;;;;43.43;20.87;;;9.40;99.90;;;;;;5093808;28;20212;-74
2023/04/07 05:38:52;;;;;;;41.33;20.70;;;9.50;99.90;;;;;;5093617;28;20203;-74
2023/04/07 05:41:18;;;;;;;42.70;20.53;;;9.40;99.90;;;;;;5092865;28;20631;-73
2023/04/07 05:43:44;;;;;;;44.30;20.73;;;9.40;99.90;;;;;;5093647;28;20179;-74
2023/04/07 05:46:09;;;;;;;37.90;19.97;;;9.50;99.90;;;;;;5092381;28;20192;-73
2023/04/07 05:48:38;;;;;;;39.50;19.30;;;9.40;99.90;;;;;;5093008;28;20224;-73
2023/04/07 05:51:03;;;;;;;42.63;21.13;;;9.50;99.90;;;;;;5091835;28;20183;-73
2023/04/07 05:53:29;;;;;;;38.40;19.97;;;9.50;99.90;;;;;;5093128;28;20175;-73
2023/04/07 05:55:58;;;;;;;38.47;19.60;;;9.70;99.90;;;;;;5093363;28;20631;-74
2023/04/07 05:58:23;;;;;;;36.40;18.97;;;9.70;99.90;;;;;;5092937;28;20172;-75
2023/04/07 06:00:49;;;;;;;33.43;19.10;;;9.70;99.90;;;;;;5093573;28;20280;-74
2023/04/07 06:03:15;;;;;;;37.40;19.33;;;9.80;99.90;;;;;;5092845;28;20168;-74
2023/04/07 06:05:42;;;;;;;37.70;20.23;;;9.80;99.90;;;;;;5093310;28;20674;-73
2023/04/07 06:08:09;;;;;;;38.17;20.43;;;9.80;99.90;;;;;;5093280;28;20156;-73
2023/04/07 06:10:35;;;;;;;34.90;18.07;;;9.90;99.90;;;;;;5092917;28;20691;-73
2023/04/07 06:13:03;;;;;;;36.33;19.00;;;10.00;99.90;;;;;;5092725;28;20262;-73
2023/04/07 06:15:29;;;;;;;34.60;18.77;;;10.10;99.90;;;;;;5092846;28;20694;-74
2023/04/07 06:17:55;;;;;;;38.23;19.33;;;10.20;99.90;;;;;;5092933;28;20251;-74
2023/04/07 06:20:21;;;;;;;38.20;19.83;;;10.20;99.90;;;;;;5092827;28;20203;-74
2023/04/07 06:22:47;;;;;;;41.13;19.90;;;10.40;99.90;;;;;;5092509;28;20213;-74
2023/04/07 06:25:13;;;;;;;34.10;19.17;;;10.60;99.90;;;;;;5093019;28;20172;-74
2023/04/07 06:27:38;;;;;;;36.87;19.93;;;10.70;99.90;;;;;;5092472;28;20584;-74
2023/04/07 06:30:04;;;;;;;35.27;19.97;;;10.90;99.90;;;;;;5092184;28;20168;-74
2023/04/07 06:32:30;;;;;;;34.73;19.10;;;11.10;99.90;;;;;;5092758;28;20221;-75
2023/04/07 06:34:56;;;;;;;33.53;18.67;;;11.70;99.90;;;;;;5092622;28;20164;-75
2023/04/07 06:37:23;;;;;;;27.30;17.43;;;12.50;99.90;;;;;;5090583;28;20651;-74
2023/04/07 06:39:49;;;;;;;28.07;17.17;;;13.00;92.00;;;;;;5092380;28;20557;-74
2023/04/07 06:42:16;;;;;;;28.40;17.73;;;13.30;70.70;;;;;;5092848;28;20253;-76
2023/04/07 06:44:42;;;;;;;24.97;16.43;;;13.40;47.50;;;;;;5092104;28;20200;-74
2023/04/07 06:47:08;;;;;;;28.10;16.00;;;13.10;30.10;;;;;;5092549;28;20236;-74
2023/04/07 06:49:34;;;;;;;25.43;16.23;;;12.80;35.00;;;;;;5092118;28;20180;-75
2023/04/07 06:51:59;;;;;;;29.23;16.47;;;12.50;44.40;;;;;;5092588;28;20175;-75
2023/04/07 06:54:25;;;;;;;21.93;13.40;;;12.30;59.40;;;;;;5092644;28;20615;-74
2023/04/07 06:56:50;;;;;;;18.57;12.60;;;12.00;61.60;;;;;;5091722;28;20164;-74
2023/04/07 06:59:16;;;;;;;17.33;11.80;;;11.80;71.80;;;;;;5091752;28;20671;-74
2023/04/07 07:01:42;;;;;;;20.90;13.23;;;11.20;86.60;;;;;;5092115;28;20207;-73
2023/04/07 07:04:08;;;;;;;21.33;13.73;;;11.00;95.10;;;;;;5091775;28;20167;-74
2023/04/07 07:06:34;;;;;;;20.40;13.50;;;11.00;99.00;;;;;;5091975;28;20164;-75
2023/04/07 07:09:01;;;;;;;21.50;13.37;;;11.00;99.30;;;;;;5092221;28;20175;-75
2023/04/07 07:11:27;;;;;;;21.27;12.83;;;10.90;99.90;;;;;;5090663;28;20164;-73
2023/04/07 07:13:53;;;;;;;19.97;12.77;;;10.90;99.90;;;;;;5089733;28;20312;-73
2023/04/07 07:16:19;;;;;;;20.10;12.23;;;11.00;99.90;;;;;;5092218;28;20179;-75
2023/04/07 07:18:44;;;;;;;19.03;11.23;;;10.90;99.90;;;;;;5090976;28;20222;-75
2023/04/07 07:21:10;;;;;;;15.27;10.13;;;11.00;99.90;;;;;;5092212;28;20168;-74
2023/04/07 07:23:36;;;;;;;12.87;9.30;;;11.30;98.60;;;;;;5090849;28;20172;-75
2023/04/07 07:26:02;;;;;;;12.53;8.93;;;11.70;91.40;;;;;;5093003;28;20168;-74
2023/04/07 07:28:28;;;;;;;14.03;9.47;;;12.10;77.20;;;;;;5092181;28;20160;-75
2023/04/07 07:30:53;;;;;;;15.53;9.63;;;12.60;70.00;;;;;;5092216;28;20171;-75
2023/04/07 07:33:21;;;;;;;12.83;8.50;;;13.50;41.80;;;;;;5090915;28;20660;-74
2023/04/07 07:35:47;;;;;;;11.03;8.43;;;13.90;17.70;;;;;;5092331;28;20491;-75
2023/04/07 07:38:13;;;;;;;13.23;9.03;;;14.10;8.20;;;;;;5091534;28;20216;-74
2023/04/07 07:40:38;;;;;;;14.90;9.60;;;14.10;1.00;;;;;;5092441;28;20268;-74
2023/04/07 07:43:05;;;;;;;14.70;10.03;;;13.80;3.70;;;;;;5091884;28;20168;-75
2023/04/07 07:45:30;;;;;;;19.00;8.63;;;13.50;3.80;;;;;;5092329;28;20199;-73
2023/04/07 07:47:56;;;;;;;11.50;7.80;;;13.00;12.20;;;;;;5091377;28;20175;-74
2023/04/07 07:50:22;;;;;;;11.17;7.53;;;12.50;22.60;;;;;;5092634;28;20184;-74
2023/04/07 07:52:47;;;;;;;16.17;8.60;;;12.10;31.40;;;;;;5092149;28;20179;-74
2023/04/07 07:55:13;;;;;;;11.40;7.97;;;12.00;45.20;;;;;;5092028;28;20211;-73
2023/04/07 07:57:38;;;;;;;10.83;7.70;;;11.80;44.40;;;;;;5091812;28;20250;-75
2023/04/07 08:00:05;;;;;;;9.93;7.30;;;11.60;54.90;;;;;;5090654;28;20230;-73
2023/04/07 08:02:32;;;;;;;10.03;6.83;;;11.60;58.70;;;;;;5091790;28;20171;-74
2023/04/07 08:04:59;;;;;;;9.33;7.13;;;11.70;66.30;;;;;;5091338;28;20603;-75
2023/04/07 08:07:26;;;;;;;25.03;8.07;;;11.70;60.50;;;;;;5092086;28;20249;-75
2023/04/07 08:09:51;;;;;;;14.33;7.57;;;11.80;53.70;;;;;;5091151;28;20611;-74
2023/04/07 08:12:17;;;;;;;13.93;7.93;;;11.60;58.10;;;;;;5091560;28;20241;-74
2023/04/07 08:14:43;;;;;;;9.93;6.77;;;11.90;55.90;;;;;;5091510;28;20663;-73
2023/04/07 08:17:09;;;;;;;11.83;6.50;;;11.80;53.70;;;;;;5091486;28;20688;-73
2023/04/07 08:19:34;;;;;;;10.33;7.30;;;11.60;57.40;;;;;;5085674;28;20200;-74
2023/04/07 08:22:00;;;;;;;11.50;6.60;;;11.50;65.10;;;;;;5086949;28;20210;-69
2023/04/07 08:24:27;;;;;;;13.00;7.17;;;11.50;63.20;;;;;;5069667;28;20183;-71
2023/04/07 08:26:53;;;;;;;8.37;5.30;;;11.50;61.90;;;;;;5074098;28;20200;-72
2023/04/07 08:29:18;;;;;;;10.37;6.17;;;11.40;62.10;;;;;;5074970;28;20175;-70
2023/04/07 08:31:44;;;;;;;8.47;5.47;;;11.40;65.30;;;;;;5080252;28;20662;-70
2023/04/07 08:34:10;;;;;;;6.97;4.87;;;11.60;63.10;;;;;;5092753;28;20191;-71
2023/04/07 08:36:35;;;;;;;10.23;5.30;;;11.40;54.30;;;;;;5094070;28;20250;-73
2023/04/07 08:39:03;;;;;;;7.40;4.97;;;11.40;57.60;;;;;;5094139;28;20634;-71
2023/04/07 08:41:39;;;;;;;9.73;6.10;;;11.30;62.30;;;;;;5094120;28;20190;-69
2023/04/07 08:44:06;;;;;;;9.03;5.40;;;11.30;65.80;;;;;;5094633;28;20199;-72
2023/04/07 08:46:33;;;;;;;7.43;5.43;;;11.40;70.20;;;;;;5094103;28;20183;-70
2023/04/07 08:49:00;;;;;;;8.93;4.90;;;11.50;60.90;;;;;;5094483;28;20228;-72
2023/04/07 08:51:31;;;;;;;9.57;5.30;;;11.60;54.90;;;;;;5093259;28;20188;-71
2023/04/07 08:54:05;;;;;;;8.40;5.03;;;11.90;56.10;;;;;;5090672;28;20217;-71
2023/04/07 08:56:33;;;;;;;8.87;4.43;;;12.20;48.10;;;;;;5094262;28;20227;-71
2023/04/07 08:59:01;;;;;;;5.27;4.70;;;12.40;40.90;;;;;;5093687;28;20235;-72
2023/04/07 09:01:28;;;;;;;8.77;4.33;;;12.80;29.30;;;;;;5094682;28;20179;-71
2023/04/07 09:03:57;;;;;;;5.83;4.03;;;13.20;18.70;;;;;;5094117;28;20164;-73
2023/04/07 09:06:23;;;;;;;4.70;3.77;;;13.60;8.50;;;;;;5093436;28;20636;-71
2023/04/07 09:08:49;;;;;;;5.33;4.20;;;13.90;1.00;;;;;;5089460;28;20223;-70
2023/04/07 09:11:15;;;;;;;5.93;2.97;;;13.90;1.00;;;;;;5092993;28;20264;-71
2023/04/07 09:13:40;;;;;;;12.73;2.70;;;14.50;1.00;;;;;;5093483;28;20560;-73
2023/04/07 09:16:13;;;;;;;7.87;3.43;;;16.30;1.00;;;;;;5093087;28;20254;-74
2023/04/07 09:18:38;;;;;;;4.97;2.08;;;18.40;1.00;;;;;;5093679;28;20168;-73
2023/04/07 09:21:06;;;;;;;3.53;2.10;;;19.70;99.90;;;;;;5093681;28;20595;-72
2023/04/07 09:23:33;;;;;;;4.65;2.13;;;20.30;1.00;;;;;;5093770;28;20187;-74
2023/04/07 09:26:17;;;;;;;6.63;2.20;;;21.10;99.90;;;;;;5093308;28;20229;-74
2023/04/07 09:28:47;;;;;;;3.20;1.58;;;22.10;53.30;;;;;;5077759;28;20225;-75
2023/04/07 09:31:13;;;;;;;4.30;1.55;;;23.00;99.90;;;;;;5093953;28;20210;-72
2023/04/07 09:33:39;;;;;;;2.72;1.67;;;23.60;1.00;;;;;;5093948;28;20203;-74
2023/04/07 09:36:06;;;;;;;5.90;1.92;;;23.20;1.00;;;;;;5092754;28;20179;-73
2023/04/07 09:38:34;;;;;;;3.72;1.70;;;22.10;99.90;;;;;;5092244;28;20277;-72
2023/04/07 09:41:11;;;;;;;3.65;1.67;;;21.20;1.00;;;;;;5093191;28;20191;-72
2023/04/07 09:43:40;;;;;;;3.67;1.98;;;20.50;99.90;;;;;;5093222;28;20214;-71
2023/04/07 09:46:12;;;;;;;3.50;1.67;;;19.70;99.90;;;;;;5092507;28;20168;-70
2023/04/07 09:48:39;;;;;;;2.72;1.70;;;19.30;1.00;;;;;;5092033;28;20654;-72
2023/04/07 09:51:10;;;;;;;3.60;1.58;;;18.40;15.90;;;;;;5092912;28;20168;-69
2023/04/07 09:53:42;;;;;;;7.07;2.30;;;18.30;1.00;;;;;;5092370;28;20172;-70
2023/04/07 09:56:09;;;;;;;2.78;1.98;;;18.60;99.90;;;;;;5092643;28;20176;-72
2023/04/07 09:58:41;;;;;;;2.63;2.40;;;19.00;98.30;;;;;;5092989;28;20180;-72
2023/04/07 10:01:08;;;;;;;4.03;1.70;;;19.30;1.00;;;;;;5092913;28;20175;-71
2023/04/07 10:03:35;;;;;;;5.68;2.10;;;18.70;1.00;;;;;;5092315;28;20170;-73
2023/04/07 10:06:01;;;;;;;3.05;1.80;;;18.30;1.00;;;;;;5092893;28;20262;-70
2023/04/07 10:08:37;;;;;;;3.95;2.10;;;18.50;1.00;;;;;;5092204;28;20214;-72
2023/04/07 10:11:05;;;;;;;3.63;1.60;;;19.90;99.90;;;;;;5093055;28;20179;-72
2023/04/07 10:13:35;;;;;;;4.75;2.20;;;20.90;1.00;;;;;;5093354;28;20213;-72
2023/04/07 10:16:06;;;;;;;3.72;2.00;;;21.90;99.90;;;;;;5092663;28;20168;-72
2023/04/07 10:18:34;;;;;;;1.65;1.55;;;22.00;99.90;;;;;;5093283;28;20160;-74
2023/04/07 10:21:02;;;;;;;4.07;2.00;;;22.00;1.00;;;;;;5093336;28;20258;-73
2023/04/07 10:23:47;;;;;;;4.22;1.90;;;21.40;99.90;;;;;;5092290;28;20178;-71
2023/04/07 10:26:18;;;;;;;6.88;2.33;;;20.30;35.80;;;;;;5092809;28;20175;-71
2023/04/07 10:28:47;;;;;;;3.15;2.17;;;19.50;1.00;;;;;;5093141;28;20244;-75
2023/04/07 10:31:13;;;;;;;8.25;2.90;;;18.20;1.00;;;;;;5092936;28;20688;-71
2023/04/07 10:33:47;;;;;;;8.93;2.92;;;17.10;99.90;;;;;;5092695;28;20180;-71
2023/04/07 10:36:12;;;;;;;8.15;3.10;;;16.30;1.00;;;;;;5092122;28;20164;-74
2023/04/07 10:38:38;;;;;;;5.20;2.90;;;15.70;1.00;;;;;;5091980;28;20534;-72
2023/04/07 10:41:36;;;;;;;4.23;2.90;;;15.10;1.00;;;;;;5092559;28;20642;-72
2023/04/07 10:44:06;;;;;;;4.70;3.20;;;14.50;1.00;;;;;;5091907;28;20605;-72
2023/04/07 10:47:02;;;;;;;4.50;2.73;;;14.20;1.00;;;;;;5091483;28;20171;-72
2023/04/07 10:49:27;;;;;;;5.50;2.60;;;13.80;1.00;;;;;;5090686;28;20191;-72
2023/04/07 10:52:11;;;;;;;13.63;3.30;;;13.60;1.00;;;;;;5091630;28;20165;-71
2023/04/07 10:54:41;;;;;;;5.67;2.93;;;13.60;1.00;;;;;;5089957;28;20183;-71
2023/04/07 10:57:14;;;;;;;7.23;3.57;;;13.50;1.00;;;;;;5092665;28;20172;-72
2023/04/07 11:00:05;;;;;;;7.33;3.87;;;13.30;7.90;;;;;;5090887;28;20195;-72
2023/04/07 11:02:31;;;;;;;6.10;3.93;;;13.40;12.50;;;;;;5091859;28;20168;-72
2023/04/07 11:04:56;;;;;;;5.93;3.67;;;13.70;8.30;;;;;;5092566;28;20156;-71
2023/04/07 11:07:43;;;;;;;8.13;3.77;;;13.90;5.60;;;;;;5091782;28;20285;-72
2023/04/07 11:10:11;;;;;;;18.33;5.70;;;14.30;1.00;;;;;;5091798;28;20168;-71
2023/04/07 11:12:37;;;;;;;9.47;4.60;;;14.50;1.00;;;;;;5091984;28;20179;-71
2023/04/07 11:15:21;;;;;;;12.50;4.37;;;14.90;1.00;;;;;;5090391;28;20167;-72
2023/04/07 11:18:04;;;;;;;6.73;3.37;;;15.20;1.00;;;;;;5092406;28;20163;-70
2023/04/07 11:20:50;;;;;;;8.30;3.90;;;15.30;1.00;;;;;;5092217;28;20195;-71
2023/04/07 11:23:17;;;;;;;8.73;3.40;;;15.30;1.00;;;;;;5091385;28;20267;-75
2023/04/07 11:25:44;;;;;;;6.60;2.97;;;15.40;1.00;;;;;;5090949;28;20164;-75
2023/04/07 11:28:12;;;;;;;9.20;3.03;;;15.30;1.00;;;;;;5091092;28;20171;-72
2023/04/07 11:30:38;;;;;;;5.70;3.03;;;15.20;1.00;;;;;;5092352;28;20186;-74
2023/04/07 11:33:04;;;;;;;3.80;3.03;;;14.70;1.00;;;;;;5091904;28;20164;-72
2023/04/07 11:35:30;;;;;;;5.67;3.20;;;14.30;1.00;;;;;;5091309;28;20156;-73
2023/04/07 11:37:58;;;;;;;6.93;3.50;;;14.10;4.30;;;;;;5090921;28;20746;-72
2023/04/07 11:40:36;;;;;;;7.20;3.33;;;13.90;12.10;;;;;;5091629;28;20203;-72
2023/04/07 11:43:18;;;;;;;7.53;3.30;;;13.80;14.50;;;;;;5089314;28;20169;-71
2023/04/07 11:45:47;;;;;;;7.47;3.60;;;13.80;16.80;;;;;;5078791;28;20276;-70
2023/04/07 11:48:26;;;;;;;7.63;3.90;;;13.80;14.20;;;;;;5091175;28;20168;-71
2023/04/07 11:50:52;;;;;;;6.40;3.70;;;14.10;2.60;;;;;;5090983;28;20202;-69
2023/04/07 11:53:44;;;;;;;6.27;3.70;;;14.40;1.00;;;;;;5091193;28;20191;-71
2023/04/07 11:56:15;;;;;;;7.60;4.00;;;14.80;1.00;;;;;;5072967;28;20171;-72
2023/04/07 11:58:49;;;;;;;7.00;4.90;;;15.30;1.00;;;;;;5090586;28;20173;-73
2023/04/07 12:01:15;;;;;;;9.63;3.67;;;15.60;1.00;;;;;;5094847;28;20230;-72
2023/04/07 12:04:01;;;;;;;4.87;3.07;;;15.80;1.00;;;;;;5094886;28;20168;-70
2023/04/07 12:06:37;;;;;;;8.23;2.83;;;16.10;1.00;;;;;;5081064;28;20178;-72
2023/04/07 12:09:04;;;;;;;6.13;3.50;;;16.30;1.00;;;;;;5094866;28;20171;-72
2023/04/07 12:11:31;;;;;;;6.50;2.70;;;15.90;1.00;;;;;;5095352;28;20171;-70
2023/04/07 12:13:58;;;;;;;6.73;2.80;;;15.20;1.00;;;;;;5094907;28;20164;-71
2023/04/07 12:16:24;;;;;;;7.93;3.37;;;14.40;1.00;;;;;;5094734;28;20176;-72
2023/04/07 12:18:50;;;;;;;11.97;3.87;;;14.10;1.00;;;;;;5094155;28;20192;-72
2023/04/07 12:21:17;;;;;;;5.50;3.07;;;13.80;18.80;;;;;;5094804;28;20191;-72
2023/04/07 12:23:42;;;;;;;4.80;3.00;;;13.60;23.30;;;;;;5092696;28;20255;-72
2023/04/07 12:26:10;;;;;;;6.23;3.20;;;13.60;27.80;;;;;;5093880;28;20315;-74
2023/04/07 12:28:36;;;;;;;6.57;3.47;;;13.60;32.80;;;;;;5093225;28;20589;-73
2023/04/07 12:31:03;;;;;;;5.37;3.20;;;13.50;35.00;;;;;;5094062;28;20172;-74
2023/04/07 12:33:28;;;;;;;8.20;2.80;;;13.70;33.90;;;;;;5094391;28;20180;-73
2023/04/07 12:35:54;;;;;;;6.63;3.33;;;14.00;30.40;;;;;;5094186;28;20232;-70
2023/04/07 12:38:20;;;;;;;4.43;2.67;;;14.20;14.40;;;;;;5094571;28;20215;-72
2023/04/07 12:40:45;;;;;;;7.07;3.17;;;13.90;12.90;;;;;;5095003;28;20195;-72
2023/04/07 12:43:11;;;;;;;3.57;3.13;;;14.10;16.80;;;;;;5093962;28;20497;-72
2023/04/07 12:45:37;;;;;;;6.77;3.63;;;14.30;11.30;;;;;;5090369;28;20278;-74